createdAt,value
2018-01-14T00:00:51.457Z,83.90
2018-01-14T00:03:18.917Z,83.70
2018-01-14T00:05:46.352Z,83.70
2018-01-14T00:08:13.811Z,83.90
2018-01-14T00:10:41.244Z,83.80
2018-01-14T00:13:08.685Z,83.50
2018-01-14T00:15:36.154Z,83.90
2018-01-14T00:18:03.780Z,83.70
2018-01-14T00:20:31.240Z,84.00
2018-01-14T00:22:58.705Z,84.00
2018-01-14T00:25:26.149Z,83.80
2018-01-14T00:27:53.604Z,83.70
2018-01-14T00:30:21.048Z,83.80
2018-01-14T00:32:48.488Z,83.80
2018-01-14T00:35:15.947Z,83.50
2018-01-14T00:37:44.166Z,83.80
2018-01-14T00:40:11.639Z,83.70
2018-01-14T00:42:39.087Z,83.50
2018-01-14T00:45:06.559Z,83.20
2018-01-14T00:47:34.013Z,83.40
2018-01-14T00:50:08.245Z,83.40
2018-01-14T00:52:35.688Z,83.30
2018-01-14T00:55:03.156Z,83.70
2018-01-14T00:57:30.580Z,83.00
2018-01-14T00:59:58.039Z,82.70
2018-01-14T01:02:25.485Z,83.20
2018-01-14T01:04:53.149Z,83.20
2018-01-14T01:07:20.597Z,83.50
2018-01-14T01:09:48.036Z,83.10
2018-01-14T01:12:15.484Z,83.20
2018-01-14T01:14:42.947Z,83.00
2018-01-14T01:17:10.726Z,83.50
2018-01-14T01:19:38.156Z,83.70
2018-01-14T01:22:05.599Z,83.40
2018-01-14T01:24:33.059Z,83.20
2018-01-14T01:27:00.487Z,83.00
2018-01-14T01:29:27.948Z,83.20
2018-01-14T01:31:55.410Z,83.50
2018-01-14T01:34:22.858Z,83.60
2018-01-14T01:36:50.439Z,83.90
2018-01-14T01:39:17.876Z,84.10
2018-01-14T01:41:45.364Z,84.10
2018-01-14T01:44:12.802Z,84.10
2018-01-14T01:46:40.240Z,84.30
2018-01-14T01:49:07.692Z,84.20
2018-01-14T01:51:35.270Z,84.50
2018-01-14T01:54:02.885Z,84.70
2018-01-14T01:56:30.329Z,84.80
2018-01-14T01:58:57.769Z,85.00
2018-01-14T02:01:25.230Z,85.00
2018-01-14T02:03:52.915Z,85.50
2018-01-14T02:06:20.329Z,85.90
2018-01-14T02:08:47.787Z,85.80
2018-01-14T02:11:15.227Z,85.70
2018-01-14T02:13:43.767Z,85.70
2018-01-14T02:16:11.180Z,85.70
2018-01-14T02:18:38.614Z,86.10
2018-01-14T02:21:06.067Z,86.20
2018-01-14T02:23:33.512Z,86.50
2018-01-14T02:26:00.964Z,86.40
2018-01-14T02:28:28.487Z,85.90
2018-01-14T02:30:55.914Z,86.10
2018-01-14T02:33:23.356Z,86.60
2018-01-14T02:35:50.799Z,86.40
2018-01-14T02:38:18.261Z,86.20
2018-01-14T02:40:45.720Z,86.10
2018-01-14T02:43:13.152Z,85.70
2018-01-14T02:45:40.618Z,86.30
2018-01-14T02:48:08.038Z,85.90
2018-01-14T02:50:35.513Z,86.00
2018-01-14T02:53:02.954Z,86.00
2018-01-14T02:55:30.392Z,86.00
2018-01-14T02:57:57.845Z,85.80
2018-01-14T03:00:25.283Z,85.90
2018-01-14T03:02:53.089Z,85.90
2018-01-14T03:05:20.523Z,85.10
2018-01-14T03:07:47.955Z,84.70
2018-01-14T03:10:15.417Z,84.40
2018-01-14T03:12:42.852Z,85.00
2018-01-14T03:15:10.323Z,85.60
2018-01-14T03:17:37.780Z,84.90
2018-01-14T03:20:08.045Z,84.90
2018-01-14T03:22:35.494Z,85.60
2018-01-14T03:25:03.148Z,85.80
2018-01-14T03:27:30.605Z,85.90
2018-01-14T03:29:58.070Z,85.90
2018-01-14T03:32:25.513Z,85.80
2018-01-14T03:34:52.985Z,86.10
2018-01-14T03:37:20.452Z,85.80
2018-01-14T03:39:47.893Z,85.40
2018-01-14T03:42:15.362Z,85.00
2018-01-14T03:44:42.830Z,85.20
2018-01-14T03:47:10.294Z,85.40
2018-01-14T03:49:37.755Z,85.40
2018-01-14T03:52:05.217Z,85.50
2018-01-14T03:54:32.668Z,85.80
2018-01-14T03:57:00.117Z,85.90
2018-01-14T03:59:27.572Z,85.60
2018-01-14T04:01:55.029Z,86.20
2018-01-14T04:04:22.481Z,85.40
2018-01-14T04:06:49.916Z,84.80
2018-01-14T04:09:17.360Z,84.80
2018-01-14T04:11:44.832Z,85.10
2018-01-14T04:14:12.285Z,85.30
2018-01-14T04:16:39.724Z,85.40
2018-01-14T04:19:07.178Z,85.50
2018-01-14T04:21:34.613Z,84.80
2018-01-14T04:24:02.060Z,85.30
2018-01-14T04:26:29.504Z,85.40
2018-01-14T04:28:56.957Z,85.50
2018-01-14T04:31:24.421Z,85.60
2018-01-14T04:33:51.890Z,85.60
2018-01-14T04:36:19.336Z,85.60
2018-01-14T04:38:46.790Z,85.40
2018-01-14T04:41:15.006Z,86.40
2018-01-14T04:43:42.445Z,86.40
2018-01-14T04:46:10.252Z,86.80
2018-01-14T04:48:37.690Z,86.40
2018-01-14T04:51:05.145Z,86.30
2018-01-14T04:53:32.589Z,86.70
2018-01-14T04:56:00.026Z,86.60
2018-01-14T04:58:27.476Z,86.40
2018-01-14T05:00:54.931Z,86.10
2018-01-14T05:03:22.383Z,86.30
2018-01-14T05:05:49.842Z,87.20
2018-01-14T05:08:17.291Z,86.90
2018-01-14T05:10:44.762Z,86.80
2018-01-14T05:13:12.206Z,86.40
2018-01-14T05:15:39.644Z,86.60
2018-01-14T05:18:07.068Z,85.90
2018-01-14T05:20:34.511Z,86.40
2018-01-14T05:23:01.987Z,86.30
2018-01-14T05:25:29.451Z,86.40
2018-01-14T05:27:56.919Z,86.80
2018-01-14T05:30:24.353Z,86.60
2018-01-14T05:32:51.801Z,87.00
2018-01-14T05:35:19.269Z,87.60
2018-01-14T05:37:46.748Z,87.70
2018-01-14T05:40:14.211Z,87.70
2018-01-14T05:42:41.661Z,86.90
2018-01-14T05:45:09.100Z,87.10
2018-01-14T05:47:36.556Z,87.30
2018-01-14T05:50:07.253Z,87.20
2018-01-14T05:52:34.684Z,87.70
2018-01-14T05:55:02.893Z,87.60
2018-01-14T05:57:30.344Z,87.60
2018-01-14T05:59:57.806Z,87.20
2018-01-14T06:02:26.011Z,87.20
2018-01-14T06:04:53.452Z,87.10
2018-01-14T06:07:20.911Z,87.20
2018-01-14T06:09:48.348Z,87.60
2018-01-14T06:12:15.792Z,87.30
2018-01-14T06:14:43.297Z,87.40
2018-01-14T06:17:10.733Z,87.50
2018-01-14T06:19:38.197Z,87.70
2018-01-14T06:22:05.636Z,87.40
2018-01-14T06:24:33.201Z,87.30
2018-01-14T06:27:00.649Z,87.70
2018-01-14T06:29:28.089Z,87.50
2018-01-14T06:31:55.553Z,87.50
2018-01-14T06:34:23.012Z,87.40
2018-01-14T06:36:50.465Z,87.30
2018-01-14T06:39:17.913Z,87.20
2018-01-14T06:41:45.353Z,87.30
2018-01-14T06:44:12.818Z,87.50
2018-01-14T06:46:40.260Z,87.80
2018-01-14T06:49:07.700Z,87.80
2018-01-14T06:51:35.325Z,87.40
2018-01-14T06:54:02.847Z,87.30
2018-01-14T06:56:30.308Z,87.30
2018-01-14T06:58:57.752Z,87.40
2018-01-14T07:01:25.196Z,87.30
2018-01-14T07:03:52.876Z,87.30
2018-01-14T07:06:20.351Z,87.60
2018-01-14T07:08:48.636Z,87.40
2018-01-14T07:11:16.292Z,87.30
2018-01-14T07:13:43.758Z,87.80
2018-01-14T07:16:11.212Z,88.00
2018-01-14T07:18:38.668Z,88.40
2018-01-14T07:21:06.129Z,88.10
2018-01-14T07:23:33.576Z,87.80
2018-01-14T07:26:01.018Z,87.70
2018-01-14T07:28:28.484Z,87.90
2018-01-14T07:30:55.920Z,87.70
2018-01-14T07:33:23.477Z,87.20
2018-01-14T07:35:50.936Z,87.50
2018-01-14T07:38:18.393Z,87.80
2018-01-14T07:40:45.847Z,87.80
2018-01-14T07:43:13.291Z,88.00
2018-01-14T07:45:40.748Z,87.90
2018-01-14T07:48:08.185Z,88.00
2018-01-14T07:50:35.774Z,88.00
2018-01-14T07:53:03.287Z,88.30
2018-01-14T07:55:30.680Z,88.30
2018-01-14T07:57:58.144Z,88.60
2018-01-14T08:00:25.581Z,88.20
2018-01-14T08:02:53.085Z,88.00
2018-01-14T08:05:20.541Z,88.20
2018-01-14T08:07:47.989Z,88.70
2018-01-14T08:10:15.430Z,88.70
2018-01-14T08:12:43.030Z,88.60
2018-01-14T08:15:10.472Z,88.70
2018-01-14T08:17:37.935Z,88.80
2018-01-14T08:20:10.236Z,88.30
2018-01-14T08:22:37.709Z,87.90
2018-01-14T08:25:05.162Z,87.60
2018-01-14T08:27:32.916Z,87.50
2018-01-14T08:30:00.369Z,87.20
2018-01-14T08:32:28.127Z,87.20
2018-01-14T08:34:55.561Z,87.10
2018-01-14T08:37:23.769Z,87.80
2018-01-14T08:39:51.522Z,87.80
2018-01-14T08:42:19.146Z,87.80
2018-01-14T08:44:46.516Z,87.70
2018-01-14T08:47:13.980Z,87.70
2018-01-14T08:49:41.430Z,87.30
2018-01-14T08:52:08.864Z,87.50
2018-01-14T08:54:36.321Z,86.70
2018-01-14T08:57:03.773Z,86.30
2018-01-14T08:59:31.240Z,86.30
2018-01-14T09:01:58.691Z,86.20
2018-01-14T09:04:26.153Z,85.90
2018-01-14T09:06:53.614Z,85.60
2018-01-14T09:09:21.052Z,85.60
2018-01-14T09:11:48.512Z,86.00
2018-01-14T09:14:15.971Z,85.20
2018-01-14T09:16:44.177Z,85.60
2018-01-14T09:19:11.637Z,85.50
2018-01-14T09:21:39.090Z,85.10
2018-01-14T09:24:06.539Z,84.80
2018-01-14T09:26:33.979Z,84.30
2018-01-14T09:29:01.421Z,84.90
2018-01-14T09:31:28.888Z,84.50
2018-01-14T09:33:56.354Z,83.50
2018-01-14T09:36:23.806Z,82.70
2018-01-14T09:38:51.242Z,82.70
2018-01-14T09:41:18.706Z,83.50
2018-01-14T09:43:46.161Z,82.70
2018-01-14T09:46:13.600Z,82.20
2018-01-14T09:48:41.055Z,82.30
2018-01-14T09:51:08.500Z,82.80
2018-01-14T09:53:36.034Z,82.20
2018-01-14T09:56:03.545Z,79.80
2018-01-14T09:58:31.047Z,79.90
2018-01-14T10:00:58.536Z,80.10
2018-01-14T10:03:25.973Z,79.70
2018-01-14T10:05:53.421Z,79.50
2018-01-14T10:08:20.876Z,79.00
2018-01-14T10:10:48.342Z,79.00
2018-01-14T10:13:15.940Z,79.70
2018-01-14T10:15:43.401Z,79.30
2018-01-14T10:18:10.834Z,79.70
2018-01-14T10:20:38.282Z,79.60
2018-01-14T10:23:05.724Z,79.10
2018-01-14T10:25:33.176Z,78.60
2018-01-14T10:28:00.624Z,79.10
2018-01-14T10:30:28.069Z,78.20
2018-01-14T10:32:55.520Z,78.30
2018-01-14T10:35:22.959Z,78.40
2018-01-14T10:37:50.413Z,79.00
2018-01-14T10:40:17.854Z,78.40
2018-01-14T10:42:45.327Z,78.10
2018-01-14T10:45:12.791Z,78.20
2018-01-14T10:47:40.232Z,77.60
2018-01-14T10:50:08.356Z,76.80
2018-01-14T10:52:35.793Z,75.60
2018-01-14T10:55:03.889Z,76.30
2018-01-14T10:57:31.344Z,75.30
2018-01-14T10:59:58.781Z,74.80
2018-01-14T11:02:26.229Z,75.20
2018-01-14T11:04:53.675Z,74.60
2018-01-14T11:07:21.270Z,74.90
2018-01-14T11:09:48.714Z,75.10
2018-01-14T11:12:16.187Z,74.30
2018-01-14T11:14:43.809Z,74.70
2018-01-14T11:17:11.252Z,74.40
2018-01-14T11:19:38.679Z,75.30
2018-01-14T11:22:06.138Z,75.60
2018-01-14T11:24:33.582Z,75.30
2018-01-14T11:27:01.049Z,74.50
2018-01-14T11:29:38.245Z,73.10
2018-01-14T11:32:05.732Z,72.90
2018-01-14T11:34:33.152Z,73.80
2018-01-14T11:37:00.596Z,74.00
2018-01-14T11:39:28.804Z,73.50
2018-01-14T11:41:56.271Z,73.40
2018-01-14T11:44:24.476Z,72.40
2018-01-14T11:46:52.168Z,72.30
2018-01-14T11:49:20.018Z,71.70
2018-01-14T11:51:48.634Z,71.20
2018-01-14T11:54:16.062Z,70.90
2018-01-14T11:56:43.534Z,70.70
2018-01-14T11:59:10.972Z,71.90
2018-01-14T12:01:38.427Z,71.10
2018-01-14T12:04:05.876Z,71.60
2018-01-14T12:06:33.308Z,72.00
2018-01-14T12:09:00.766Z,71.20
2018-01-14T12:11:28.213Z,71.30
2018-01-14T12:13:55.713Z,70.20
2018-01-14T12:16:23.161Z,70.00
2018-01-14T12:18:50.606Z,70.40
2018-01-14T12:21:18.044Z,69.70
2018-01-14T12:23:45.505Z,69.40
2018-01-14T12:26:12.939Z,70.40
2018-01-14T12:28:40.401Z,70.00
2018-01-14T12:31:07.894Z,70.50
2018-01-14T12:36:31.816Z,61.10
2018-01-14T12:38:59.268Z,58.60
2018-01-14T12:41:26.720Z,52.20
2018-01-14T12:43:54.291Z,48.90
2018-01-14T12:46:21.749Z,49.10
2018-01-14T12:48:49.184Z,48.90
2018-01-14T12:51:16.652Z,49.60
2018-01-14T12:53:44.181Z,50.60
2018-01-14T12:56:11.613Z,53.20
2018-01-14T12:58:39.062Z,54.50
2018-01-14T13:01:06.500Z,55.50
2018-01-14T13:03:33.949Z,55.90
2018-01-14T13:06:01.386Z,56.50
2018-01-14T13:08:28.831Z,57.80
2018-01-14T13:10:57.048Z,58.00
2018-01-14T13:13:24.493Z,57.80
2018-01-14T13:15:51.957Z,58.40
2018-01-14T13:18:19.397Z,59.00
2018-01-14T13:20:46.829Z,59.80
2018-01-14T13:23:14.298Z,61.80
2018-01-14T13:25:41.747Z,61.00
2018-01-14T13:28:09.202Z,61.30
2018-01-14T13:30:36.661Z,61.80
2018-01-14T13:33:04.112Z,61.40
2018-01-14T13:35:31.573Z,61.20
2018-01-14T13:37:59.017Z,62.10
2018-01-14T13:40:26.475Z,62.40
2018-01-14T13:42:53.942Z,62.40
2018-01-14T13:45:21.382Z,62.90
2018-01-14T13:47:48.826Z,63.10
2018-01-14T13:50:16.293Z,62.80
2018-01-14T13:52:43.734Z,61.90
2018-01-14T13:55:11.184Z,62.10
2018-01-14T13:57:38.612Z,62.00
2018-01-14T14:00:06.068Z,61.70
2018-01-14T14:02:33.514Z,61.70
2018-01-14T14:05:00.952Z,61.50
2018-01-14T14:07:29.166Z,61.80
2018-01-14T14:09:57.737Z,61.60
2018-01-14T14:12:25.952Z,61.80
2018-01-14T14:14:53.385Z,61.70
2018-01-14T14:17:20.832Z,61.30
2018-01-14T14:19:48.270Z,60.60
2018-01-14T14:22:15.720Z,60.50
2018-01-14T14:24:43.176Z,60.40
2018-01-14T14:27:10.608Z,60.50
2018-01-14T14:29:38.050Z,60.60
2018-01-14T14:32:05.488Z,60.50
2018-01-14T14:34:33.123Z,60.50
2018-01-14T14:37:00.577Z,60.50
2018-01-14T14:39:28.037Z,60.70
2018-01-14T14:41:55.482Z,61.10
2018-01-14T14:44:22.988Z,61.90
2018-01-14T14:46:50.381Z,62.40
2018-01-14T14:49:17.841Z,62.50
2018-01-14T14:51:45.272Z,63.20
2018-01-14T14:54:13.493Z,62.90
2018-01-14T14:56:40.947Z,62.80
2018-01-14T14:59:08.371Z,62.90
2018-01-14T15:01:36.604Z,63.70
2018-01-14T15:04:04.044Z,63.70
2018-01-14T15:06:31.485Z,64.00
2018-01-14T15:08:58.933Z,64.10
2018-01-14T15:11:26.368Z,64.30
2018-01-14T15:13:53.842Z,64.40
2018-01-14T15:16:21.277Z,64.00
2018-01-14T15:18:48.858Z,64.00
2018-01-14T15:21:16.309Z,64.30
2018-01-14T15:23:43.765Z,64.90
2018-01-14T15:26:11.214Z,64.90
2018-01-14T15:28:38.691Z,65.50
2018-01-14T15:31:06.120Z,65.80
2018-01-14T15:33:33.560Z,65.80
2018-01-14T15:36:01.016Z,66.00
2018-01-14T15:38:28.472Z,66.20
2018-01-14T15:40:56.689Z,66.90
2018-01-14T15:43:24.136Z,66.30
2018-01-14T15:45:51.589Z,66.50
2018-01-14T15:48:19.026Z,66.90
2018-01-14T15:50:46.481Z,67.30
2018-01-14T15:53:13.923Z,67.50
2018-01-14T15:55:41.368Z,67.70
2018-01-14T15:58:08.829Z,67.60
2018-01-14T16:00:36.264Z,67.80
2018-01-14T16:03:03.724Z,67.80
2018-01-14T16:05:31.165Z,68.20
2018-01-14T16:07:58.627Z,68.40
2018-01-14T16:10:26.084Z,68.40
2018-01-14T16:12:53.521Z,68.20
2018-01-14T16:15:20.971Z,68.20
2018-01-14T16:17:48.404Z,68.50
2018-01-14T16:20:15.856Z,68.40
2018-01-14T16:22:43.308Z,68.40
2018-01-14T16:25:10.740Z,68.30
2018-01-14T16:27:38.192Z,68.10
2018-01-14T16:30:05.642Z,68.30
2018-01-14T16:32:33.077Z,68.50
2018-01-14T16:35:00.533Z,68.70
2018-01-14T16:37:27.984Z,69.70
2018-01-14T16:39:58.837Z,69.20
2018-01-14T16:42:27.022Z,69.40
2018-01-14T16:44:54.455Z,69.30
2018-01-14T16:47:21.919Z,69.60
2018-01-14T16:49:49.405Z,69.80
2018-01-14T16:52:16.809Z,70.00
2018-01-14T16:54:44.235Z,70.20
2018-01-14T16:57:11.673Z,70.50
2018-01-14T16:59:39.121Z,70.60
2018-01-14T17:02:06.567Z,71.00
2018-01-14T17:04:35.536Z,71.60
2018-01-14T17:07:02.989Z,71.60
2018-01-14T17:09:30.441Z,72.10
2018-01-14T17:11:57.900Z,72.50
2018-01-14T17:14:25.338Z,72.80
2018-01-14T17:16:52.797Z,73.10
2018-01-14T17:19:20.249Z,73.30
2018-01-14T17:21:48.477Z,73.90
2018-01-14T17:24:15.921Z,73.80
2018-01-14T17:26:43.368Z,74.30
2018-01-14T17:29:10.828Z,74.80
2018-01-14T17:31:38.259Z,75.10
2018-01-14T17:34:06.465Z,76.00
2018-01-14T17:36:33.933Z,76.00
2018-01-14T17:39:01.372Z,76.30
2018-01-14T17:41:28.816Z,76.60
2018-01-14T17:43:56.246Z,77.00
2018-01-14T17:46:23.677Z,77.10
2018-01-14T17:48:51.125Z,77.10
2018-01-14T17:51:18.572Z,77.10
2018-01-14T17:53:46.036Z,77.20
2018-01-14T17:56:19.792Z,77.30
2018-01-14T17:58:47.228Z,77.40
2018-01-14T18:01:14.665Z,77.50
2018-01-14T18:03:42.091Z,77.50
2018-01-14T18:06:09.552Z,77.80
2018-01-14T18:08:36.993Z,78.00
2018-01-14T18:11:04.451Z,78.10
2018-01-14T18:13:31.903Z,78.30
2018-01-14T18:15:59.354Z,78.40
2018-01-14T18:18:27.573Z,78.80
2018-01-14T18:20:55.018Z,78.70
2018-01-14T18:23:22.465Z,78.90
2018-01-14T18:25:49.932Z,79.10
2018-01-14T18:28:17.389Z,79.20
2018-01-14T18:30:44.845Z,79.40
2018-01-14T18:33:12.292Z,79.60
2018-01-14T18:35:39.730Z,79.80
2018-01-14T18:38:07.172Z,80.00
2018-01-14T18:40:34.617Z,80.00
2018-01-14T18:43:02.078Z,80.00
2018-01-14T18:45:41.185Z,80.00
2018-01-14T18:48:08.636Z,80.20
2018-01-14T18:50:36.081Z,80.40
2018-01-14T18:53:03.528Z,80.40
2018-01-14T18:55:31.749Z,80.50
2018-01-14T18:57:59.180Z,80.50
2018-01-14T19:00:26.637Z,80.50
2018-01-14T19:02:54.079Z,80.40
2018-01-14T19:05:21.520Z,80.50
2018-01-14T19:07:48.980Z,80.40
2018-01-14T19:10:16.424Z,80.40
2018-01-14T19:12:43.890Z,80.40
2018-01-14T19:15:11.324Z,80.40
2018-01-14T19:17:38.769Z,80.40
2018-01-14T19:20:06.220Z,80.30
2018-01-14T19:22:34.068Z,80.20
2018-01-14T19:25:03.354Z,80.00
2018-01-14T19:27:30.792Z,79.90
2018-01-14T19:29:58.244Z,79.90
2018-01-14T19:32:25.700Z,79.90
2018-01-14T19:34:53.146Z,81.00
2018-01-14T19:37:21.368Z,80.90
2018-01-14T19:39:48.813Z,80.70
2018-01-14T19:42:16.240Z,81.10
2018-01-14T19:44:43.715Z,81.40
2018-01-14T19:47:11.153Z,81.70
2018-01-14T19:49:39.113Z,82.20
2018-01-14T19:52:06.558Z,82.40
2018-01-14T19:54:34.043Z,82.80
2018-01-14T19:57:01.461Z,82.90
2018-01-14T19:59:28.901Z,83.60
2018-01-14T20:01:56.662Z,82.50
2018-01-14T20:04:24.258Z,82.40
2018-01-14T20:06:51.705Z,82.60
2018-01-14T20:09:19.947Z,82.80
2018-01-14T20:11:47.562Z,82.80
2018-01-14T20:14:15.017Z,82.70
2018-01-14T20:16:42.447Z,82.80
2018-01-14T20:19:10.604Z,82.40
2018-01-14T20:21:38.073Z,81.80
2018-01-14T20:24:05.518Z,81.70
2018-01-14T20:26:33.489Z,82.70
2018-01-14T20:29:00.939Z,82.10
2018-01-14T20:31:28.399Z,82.20
2018-01-14T20:33:55.838Z,82.40
2018-01-14T20:36:23.281Z,82.30
2018-01-14T20:38:50.770Z,82.40
2018-01-14T20:41:18.202Z,82.60
2018-01-14T20:43:46.410Z,82.70
2018-01-14T20:46:13.866Z,82.70
2018-01-14T20:48:41.313Z,83.00
2018-01-14T20:51:08.768Z,83.20
2018-01-14T20:53:36.222Z,83.40
2018-01-14T20:56:04.420Z,83.70
2018-01-14T20:58:31.876Z,83.50
2018-01-14T21:00:59.323Z,83.80
2018-01-14T21:03:27.556Z,84.00
2018-01-14T21:05:55.010Z,84.00
2018-01-14T21:08:22.444Z,84.10
2018-01-14T21:10:49.893Z,84.10
2018-01-14T21:13:18.107Z,84.10
2018-01-14T21:15:45.893Z,84.00
2018-01-14T21:18:13.338Z,84.20
2018-01-14T21:20:40.825Z,84.10
2018-01-14T21:23:08.311Z,84.10
2018-01-14T21:25:35.757Z,84.40
2018-01-14T21:28:03.244Z,84.40
2018-01-14T21:30:30.690Z,84.50
2018-01-14T21:32:58.132Z,84.80
2018-01-14T21:35:25.585Z,85.20
2018-01-14T21:37:53.037Z,85.40
2018-01-14T21:40:21.320Z,85.60
2018-01-14T21:42:48.757Z,85.80
2018-01-14T21:45:16.204Z,85.80
2018-01-14T21:47:43.684Z,85.90
2018-01-14T21:50:11.125Z,85.90
2018-01-14T21:52:43.866Z,85.90
2018-01-14T21:55:11.305Z,85.90
2018-01-14T21:57:38.745Z,85.90
2018-01-14T22:00:06.197Z,85.90
2018-01-14T22:02:33.648Z,85.90
2018-01-14T22:05:01.464Z,85.80
2018-01-14T22:07:28.919Z,85.80
2018-01-14T22:09:58.992Z,86.20
2018-01-14T22:12:26.433Z,86.00
2018-01-14T22:14:53.897Z,86.40
2018-01-14T22:17:21.359Z,86.50
2018-01-14T22:19:48.816Z,86.50
2018-01-14T22:22:16.269Z,86.60
2018-01-14T22:24:43.732Z,86.70
2018-01-14T22:27:11.164Z,87.00
2018-01-14T22:29:38.628Z,87.30
2018-01-14T22:32:06.061Z,87.60
2018-01-14T22:34:33.500Z,87.90
2018-01-14T22:37:01.025Z,88.10
2018-01-14T22:39:28.466Z,88.30
2018-01-14T22:41:55.932Z,88.50
2018-01-14T22:44:23.396Z,88.60
2018-01-14T22:46:50.867Z,88.70
2018-01-14T22:49:18.319Z,88.70
2018-01-14T22:51:45.754Z,88.70
2018-01-14T22:54:13.689Z,88.80
2018-01-14T22:56:41.188Z,88.90
2018-01-14T22:59:08.636Z,89.10
2018-01-14T23:01:36.093Z,89.20
2018-01-14T23:04:03.539Z,89.40
2018-01-14T23:06:31.582Z,89.60
2018-01-14T23:08:59.065Z,89.80
2018-01-14T23:11:26.727Z,89.90
2018-01-14T23:13:54.326Z,90.00
2018-01-14T23:16:22.545Z,90.10
2018-01-14T23:18:49.992Z,90.10
2018-01-14T23:21:17.432Z,90.10
2018-01-14T23:23:44.902Z,90.00
2018-01-14T23:26:12.368Z,90.10
2018-01-14T23:28:39.798Z,90.20
2018-01-14T23:31:07.239Z,90.20
2018-01-14T23:33:34.692Z,90.20
2018-01-14T23:36:02.128Z,90.20
2018-01-14T23:38:29.578Z,90.10
2018-01-14T23:40:57.017Z,90.10
2018-01-14T23:43:25.230Z,90.00
2018-01-14T23:45:52.681Z,90.00
2018-01-14T23:48:20.141Z,90.20
2018-01-14T23:50:47.609Z,90.20
2018-01-14T23:53:15.042Z,90.00
2018-01-14T23:55:42.485Z,90.00
2018-01-14T23:58:09.921Z,90.50
